createdAt,value
2022-12-25T00:01:33.487Z,1.70
2022-12-25T00:04:02.684Z,2.05
2022-12-25T00:11:52.843Z,2.28
2022-12-25T00:14:19.376Z,1.98
2022-12-25T00:16:45.998Z,1.98
2022-12-25T00:19:12.828Z,1.50
2022-12-25T00:21:39.872Z,1.45
2022-12-25T00:24:06.694Z,1.80
2022-12-25T00:26:33.651Z,1.77
2022-12-25T00:29:00.292Z,1.38
2022-12-25T00:33:54.455Z,1.17
2022-12-25T00:36:22.555Z,1.45
2022-12-25T00:38:49.227Z,1.52
2022-12-25T00:41:38.755Z,1.33
2022-12-25T00:44:06.972Z,1.10
2022-12-25T00:46:33.494Z,1.48
2022-12-25T00:49:00.585Z,1.60
2022-12-25T00:51:27.131Z,1.65
2022-12-25T00:53:54.338Z,1.20
2022-12-25T00:56:21.114Z,1.48
2022-12-25T00:58:47.669Z,1.05
2022-12-25T01:01:14.625Z,1.33
2022-12-25T01:03:41.375Z,1.40
2022-12-25T01:06:10.867Z,1.05
2022-12-25T01:09:00.129Z,1.13
2022-12-25T01:11:27.695Z,1.10
2022-12-25T01:13:55.210Z,1.50
2022-12-25T01:16:22.829Z,1.23
2022-12-25T01:18:49.575Z,1.05
2022-12-25T01:21:18.290Z,1.55
2022-12-25T01:23:46.062Z,1.50
2022-12-25T01:26:15.696Z,1.20
2022-12-25T01:28:43.707Z,1.38
2022-12-25T01:31:15.720Z,1.75
2022-12-25T01:33:47.644Z,1.90
2022-12-25T01:36:17.879Z,1.40
2022-12-25T01:38:46.240Z,1.67
2022-12-25T01:41:15.508Z,1.63
2022-12-25T01:44:09.459Z,1.33
2022-12-25T01:46:37.856Z,1.00
2022-12-25T01:49:09.558Z,1.20
2022-12-25T01:51:57.446Z,1.00
2022-12-25T01:54:29.011Z,1.10
2022-12-25T01:56:59.994Z,1.05
2022-12-25T01:59:28.189Z,1.23
2022-12-25T02:01:56.663Z,1.00
2022-12-25T02:04:38.750Z,1.13
2022-12-25T02:07:18.504Z,1.13
2022-12-25T02:09:47.590Z,1.02
2022-12-25T02:12:24.847Z,1.15
2022-12-25T02:15:02.849Z,0.80
2022-12-25T02:17:46.363Z,1.23
2022-12-25T02:20:43.129Z,0.88
2022-12-25T02:23:31.765Z,1.60
2022-12-25T02:26:17.454Z,1.05
2022-12-25T02:29:19.722Z,1.30
2022-12-25T02:32:00.133Z,1.30
2022-12-25T02:35:01.836Z,1.00
2022-12-25T02:40:50.747Z,0.82
2022-12-25T02:43:50.063Z,1.98
2022-12-25T02:46:40.825Z,1.25
2022-12-25T02:49:36.164Z,1.75
2022-12-25T02:52:28.859Z,1.13
2022-12-25T02:55:26.776Z,0.80
2022-12-25T02:58:15.349Z,1.15
2022-12-25T03:01:06.852Z,0.93
2022-12-25T03:03:59.224Z,1.10
2022-12-25T03:06:43.576Z,1.08
2022-12-25T03:09:39.563Z,0.90
2022-12-25T03:12:37.541Z,0.75
2022-12-25T03:15:26.537Z,0.80
2022-12-25T03:17:55.498Z,0.85
2022-12-25T03:20:43.036Z,1.02
2022-12-25T03:23:32.057Z,1.13
2022-12-25T03:26:17.453Z,0.95
2022-12-25T03:28:44.116Z,0.73
2022-12-25T03:31:29.190Z,0.95
2022-12-25T03:34:49.471Z,0.85
2022-12-25T03:37:44.183Z,0.80
2022-12-25T03:40:57.534Z,0.80
2022-12-25T03:44:26.244Z,0.88
2022-12-25T03:47:20.536Z,0.80
2022-12-25T03:52:49.242Z,0.80
2022-12-25T03:55:37.772Z,0.73
2022-12-25T04:01:04.433Z,0.93
2022-12-25T04:03:50.220Z,0.70
2022-12-25T04:06:35.552Z,0.88
2022-12-25T04:09:21.025Z,1.27
2022-12-25T04:12:06.624Z,0.90
2022-12-25T04:14:51.952Z,1.50
2022-12-25T04:17:37.219Z,0.75
2022-12-25T04:20:22.430Z,1.35
2022-12-25T04:23:08.065Z,0.70
2022-12-25T04:25:53.548Z,0.90
2022-12-25T04:28:38.772Z,1.13
2022-12-25T04:31:24.600Z,1.27
2022-12-25T04:34:09.936Z,1.05
2022-12-25T04:36:36.709Z,0.60
2022-12-25T04:39:03.369Z,0.80
2022-12-25T04:43:56.684Z,0.75
2022-12-25T04:46:23.322Z,0.50
2022-12-25T04:48:50.083Z,0.93
2022-12-25T04:51:19.366Z,1.02
2022-12-25T04:53:47.330Z,0.65
2022-12-25T04:56:14.606Z,1.05
2022-12-25T04:58:42.101Z,1.23
2022-12-25T05:01:09.523Z,1.15
2022-12-25T05:08:54.075Z,0.90
2022-12-25T05:11:21.726Z,1.20
2022-12-25T05:13:49.182Z,1.05
2022-12-25T05:16:18.421Z,1.33
2022-12-25T05:18:45.235Z,0.73
2022-12-25T05:21:12.266Z,0.90
2022-12-25T05:23:38.955Z,1.20
2022-12-25T05:26:09.855Z,0.73
2022-12-25T05:28:37.455Z,1.05
2022-12-25T05:31:04.132Z,1.10
2022-12-25T05:33:30.980Z,0.80
2022-12-25T05:35:57.329Z,1.27
2022-12-25T05:38:24.002Z,0.80
2022-12-25T05:40:51.797Z,0.90
2022-12-25T05:43:19.458Z,1.17
2022-12-25T05:45:46.284Z,0.65
2022-12-25T05:48:13.132Z,0.70
2022-12-25T05:50:39.649Z,1.23
2022-12-25T05:53:09.014Z,1.33
2022-12-25T05:55:38.033Z,1.67
2022-12-25T05:58:06.428Z,0.93
2022-12-25T06:00:34.589Z,1.20
2022-12-25T06:03:01.505Z,1.80
2022-12-25T06:07:55.035Z,1.13
2022-12-25T06:10:21.612Z,1.30
2022-12-25T06:12:49.037Z,1.20
2022-12-25T06:15:15.661Z,1.48
2022-12-25T06:17:42.728Z,1.42
2022-12-25T06:20:09.678Z,1.67
2022-12-25T06:22:36.950Z,1.50
2022-12-25T06:25:03.823Z,1.50
2022-12-25T06:27:30.771Z,1.70
2022-12-25T06:29:57.476Z,2.33
2022-12-25T06:32:23.986Z,1.70
2022-12-25T06:34:50.808Z,2.65
2022-12-25T06:39:43.790Z,1.80
2022-12-25T06:42:10.639Z,1.50
2022-12-25T06:44:37.925Z,1.48
2022-12-25T06:47:04.881Z,2.13
2022-12-25T06:49:31.559Z,1.77
2022-12-25T06:54:24.663Z,1.60
2022-12-25T06:56:51.213Z,1.60
2022-12-25T06:59:20.042Z,1.63
2022-12-25T07:01:53.428Z,1.15
2022-12-25T07:04:37.938Z,1.95
2022-12-25T07:07:09.229Z,1.00
2022-12-25T07:09:38.599Z,1.17
2022-12-25T07:12:16.118Z,1.67
2022-12-25T07:14:43.918Z,2.28
2022-12-25T07:17:10.501Z,1.77
2022-12-25T07:19:42.677Z,1.52
2022-12-25T07:22:11.254Z,1.90
2022-12-25T07:27:04.735Z,1.42
2022-12-25T07:29:32.171Z,1.80
2022-12-25T07:32:02.079Z,1.70
2022-12-25T07:34:28.823Z,1.27
2022-12-25T07:36:55.323Z,1.20
2022-12-25T07:39:23.552Z,1.08
2022-12-25T07:41:50.961Z,1.23
2022-12-25T07:44:17.537Z,1.90
2022-12-25T07:46:44.402Z,1.40
2022-12-25T07:51:39.615Z,1.30
2022-12-25T07:54:06.579Z,1.98
2022-12-25T07:56:33.019Z,1.83
2022-12-25T07:58:59.496Z,1.65
2022-12-25T08:01:27.665Z,1.88
2022-12-25T08:03:56.982Z,1.63
2022-12-25T08:09:12.768Z,1.83
2022-12-25T08:11:44.028Z,1.30
2022-12-25T08:14:10.721Z,1.48
2022-12-25T08:16:41.451Z,1.73
2022-12-25T08:19:09.047Z,1.20
2022-12-25T08:21:35.692Z,1.70
2022-12-25T08:26:30.503Z,2.20
2022-12-25T08:28:57.147Z,1.63
2022-12-25T08:31:29.474Z,1.45
2022-12-25T08:33:58.084Z,1.77
2022-12-25T08:36:25.278Z,1.40
2022-12-25T08:38:55.715Z,0.85
2022-12-25T08:41:27.773Z,1.27
2022-12-25T08:43:54.599Z,1.80
2022-12-25T08:46:21.312Z,2.30
2022-12-25T08:48:49.896Z,1.95
2022-12-25T08:51:19.998Z,1.20
2022-12-25T08:53:48.638Z,1.17
2022-12-25T08:56:18.221Z,1.17
2022-12-25T08:58:45.836Z,1.08
2022-12-25T09:01:14.304Z,1.00
2022-12-25T09:03:41.325Z,1.65
2022-12-25T09:06:15.015Z,1.20
2022-12-25T09:08:48.767Z,0.80
2022-12-25T09:11:21.714Z,1.30
2022-12-25T09:13:49.166Z,1.55
2022-12-25T09:16:18.840Z,1.20
2022-12-25T09:18:46.142Z,1.00
2022-12-25T09:21:14.361Z,1.38
2022-12-25T09:23:42.696Z,1.50
2022-12-25T09:26:13.930Z,1.05
2022-12-25T09:28:45.144Z,1.25
2022-12-25T09:31:15.447Z,1.10
2022-12-25T09:33:41.881Z,1.73
2022-12-25T09:38:36.439Z,1.50
2022-12-25T09:41:31.817Z,1.40
2022-12-25T09:44:44.686Z,1.30
2022-12-25T09:47:15.864Z,1.80
2022-12-25T09:49:52.339Z,1.65
2022-12-25T09:52:23.422Z,1.38
2022-12-25T09:54:59.747Z,1.00
2022-12-25T09:57:26.589Z,1.23
2022-12-25T09:59:56.693Z,1.20
2022-12-25T10:02:32.474Z,1.48
2022-12-25T10:05:21.426Z,1.20
2022-12-25T10:08:12.812Z,1.75
2022-12-25T10:10:57.457Z,1.50
2022-12-25T10:13:36.943Z,1.30
2022-12-25T10:16:48.310Z,1.27
2022-12-25T10:19:34.954Z,1.40
2022-12-25T10:22:09.364Z,1.17
2022-12-25T10:24:42.559Z,1.20
2022-12-25T10:27:46.603Z,1.85
2022-12-25T10:30:19.454Z,1.50
2022-12-25T10:32:47.908Z,2.00
2022-12-25T10:35:18.512Z,1.77
2022-12-25T10:37:48.749Z,1.75
2022-12-25T10:40:35.384Z,2.20
2022-12-25T10:43:11.573Z,1.95
2022-12-25T10:45:49.512Z,3.58
2022-12-25T10:48:26.181Z,1.70
2022-12-25T10:50:52.949Z,2.53
2022-12-25T10:53:24.096Z,1.70
2022-12-25T10:56:16.775Z,2.20
2022-12-25T10:58:44.287Z,1.30
2022-12-25T11:01:12.052Z,1.20
2022-12-25T11:03:41.808Z,1.50
2022-12-25T11:06:25.332Z,2.05
2022-12-25T11:08:58.352Z,1.60
2022-12-25T11:13:56.214Z,3.33
2022-12-25T11:16:28.042Z,2.20
2022-12-25T11:18:56.311Z,1.75
2022-12-25T11:21:34.282Z,2.10
2022-12-25T11:24:19.435Z,2.80
2022-12-25T11:26:47.772Z,2.70
2022-12-25T11:29:46.567Z,3.45
2022-12-25T11:32:25.018Z,1.80
2022-12-25T11:34:53.382Z,2.33
2022-12-25T11:37:48.304Z,2.22
2022-12-25T11:40:18.047Z,1.60
2022-12-25T11:42:50.579Z,2.08
2022-12-25T11:45:26.076Z,2.67
2022-12-25T11:47:57.193Z,1.60
2022-12-25T11:50:35.566Z,1.00
2022-12-25T11:53:06.786Z,2.00
2022-12-25T11:55:47.097Z,2.75
2022-12-25T11:58:33.243Z,2.28
2022-12-25T12:01:04.064Z,2.20
2022-12-25T12:03:35.902Z,2.10
2022-12-25T12:06:51.743Z,2.05
2022-12-25T12:09:24.610Z,1.70
2022-12-25T12:12:15.486Z,1.65
2022-12-25T12:15:04.300Z,1.80
2022-12-25T12:17:31.922Z,1.30
2022-12-25T12:19:58.875Z,1.83
2022-12-25T12:22:28.102Z,2.33
2022-12-25T12:25:05.742Z,2.30
2022-12-25T12:27:37.551Z,2.30
2022-12-25T12:30:07.353Z,2.45
2022-12-25T12:32:40.625Z,2.13
2022-12-25T12:35:18.612Z,1.80
2022-12-25T12:37:53.262Z,2.72
2022-12-25T12:40:36.722Z,1.70
2022-12-25T12:43:05.925Z,2.17
2022-12-25T12:45:36.475Z,1.63
2022-12-25T12:48:15.495Z,2.28
2022-12-25T12:50:42.892Z,2.33
2022-12-25T12:53:30.930Z,2.50
2022-12-25T12:56:09.644Z,2.63
2022-12-25T12:58:39.641Z,2.17
2022-12-25T13:01:36.627Z,2.30
2022-12-25T13:06:47.136Z,1.90
2022-12-25T13:09:44.769Z,2.83
2022-12-25T13:12:14.887Z,2.40
2022-12-25T13:14:46.950Z,2.08
2022-12-25T13:17:25.619Z,2.00
2022-12-25T13:19:56.122Z,2.03
2022-12-25T13:22:36.657Z,2.35
2022-12-25T13:25:07.636Z,2.28
2022-12-25T13:27:34.680Z,1.63
2022-12-25T13:30:12.443Z,2.47
2022-12-25T13:32:39.515Z,2.00
2022-12-25T13:35:12.510Z,1.85
2022-12-25T13:37:39.316Z,2.28
2022-12-25T13:40:08.438Z,2.42
2022-12-25T13:42:37.650Z,2.00
2022-12-25T13:45:14.335Z,2.65
2022-12-25T13:47:43.336Z,2.58
2022-12-25T13:50:30.203Z,2.25
2022-12-25T13:53:10.509Z,2.03
2022-12-25T13:55:37.949Z,2.28
2022-12-25T13:58:06.223Z,1.63
2022-12-25T14:00:48.839Z,2.00
2022-12-25T14:03:28.689Z,2.45
2022-12-25T14:06:00.614Z,2.13
2022-12-25T14:08:31.956Z,2.13
2022-12-25T14:11:03.657Z,2.30
2022-12-25T14:13:32.497Z,2.33
2022-12-25T14:15:59.895Z,2.30
2022-12-25T14:18:27.173Z,2.17
2022-12-25T14:21:06.264Z,2.03
2022-12-25T14:26:19.874Z,2.05
2022-12-25T14:28:53.522Z,2.10
2022-12-25T14:31:21.484Z,2.72
2022-12-25T14:33:48.951Z,2.30
2022-12-25T14:36:15.757Z,2.38
2022-12-25T14:41:33.523Z,1.70
2022-12-25T14:44:02.954Z,2.67
2022-12-25T14:46:32.627Z,2.15
2022-12-25T14:49:22.771Z,2.20
2022-12-25T14:51:50.038Z,2.00
2022-12-25T14:54:21.550Z,1.98
2022-12-25T14:56:53.826Z,2.45
2022-12-25T14:59:24.763Z,2.80
2022-12-25T15:01:58.564Z,2.00
2022-12-25T15:04:27.215Z,2.22
2022-12-25T15:07:07.014Z,2.05
2022-12-25T15:09:33.910Z,2.55
2022-12-25T15:14:27.587Z,2.25
2022-12-25T15:17:00.705Z,2.22
2022-12-25T15:19:38.067Z,2.40
2022-12-25T15:22:05.626Z,4.07
2022-12-25T15:24:32.309Z,2.00
2022-12-25T15:30:00.145Z,2.40
2022-12-25T15:32:20.265Z,2.15
2022-12-25T15:34:49.653Z,2.60
2022-12-25T15:37:17.488Z,2.40
2022-12-25T15:39:44.519Z,1.98
2022-12-25T15:44:42.543Z,2.03
2022-12-25T15:47:11.117Z,2.80
2022-12-25T15:49:37.742Z,2.47
2022-12-25T15:52:12.512Z,3.05
2022-12-25T15:54:39.589Z,2.13
2022-12-25T15:57:13.972Z,2.50
2022-12-25T15:59:40.562Z,2.58
2022-12-25T16:02:14.927Z,2.70
2022-12-25T16:04:42.640Z,2.40
2022-12-25T16:07:15.379Z,2.90
2022-12-25T16:09:42.281Z,2.20
2022-12-25T16:12:09.785Z,2.10
2022-12-25T16:14:36.583Z,2.50
2022-12-25T16:17:04.377Z,2.00
2022-12-25T16:19:30.968Z,2.78
2022-12-25T16:21:57.416Z,2.83
2022-12-25T16:24:25.042Z,3.05
2022-12-25T16:29:18.111Z,2.35
2022-12-25T16:31:44.678Z,3.20
2022-12-25T16:34:11.166Z,2.78
2022-12-25T16:36:37.765Z,3.17
2022-12-25T16:39:04.745Z,4.93
2022-12-25T16:41:31.277Z,2.88
2022-12-25T16:43:58.173Z,2.47
2022-12-25T16:48:51.585Z,2.30
2022-12-25T16:51:20.794Z,2.65
2022-12-25T16:53:48.583Z,2.60
2022-12-25T16:56:20.542Z,3.03
2022-12-25T16:58:47.789Z,2.80
2022-12-25T17:01:18.515Z,2.60
2022-12-25T17:03:47.205Z,3.17
2022-12-25T17:06:14.913Z,2.55
2022-12-25T17:08:42.427Z,2.97
2022-12-25T17:11:09.292Z,3.10
2022-12-25T17:13:36.192Z,3.10
2022-12-25T17:16:21.254Z,2.78
2022-12-25T17:18:52.768Z,2.35
2022-12-25T17:21:19.297Z,3.28
2022-12-25T17:26:12.895Z,2.47
2022-12-25T17:28:40.226Z,3.00
2022-12-25T17:31:09.105Z,2.30
2022-12-25T17:33:37.022Z,2.72
2022-12-25T17:36:05.763Z,2.85
2022-12-25T17:38:33.127Z,3.75
2022-12-25T17:41:02.243Z,3.58
2022-12-25T17:43:28.980Z,4.53
2022-12-25T17:45:55.556Z,2.60
2022-12-25T17:48:22.114Z,2.70
2022-12-25T17:50:49.225Z,3.63
2022-12-25T17:53:15.757Z,2.55
2022-12-25T17:55:43.406Z,3.20
2022-12-25T17:58:10.334Z,2.53
2022-12-25T18:00:37.463Z,2.65
2022-12-25T18:03:11.216Z,1.80
2022-12-25T18:05:38.473Z,2.38
2022-12-25T18:08:05.336Z,2.45
2022-12-25T18:13:03.505Z,2.88
2022-12-25T18:15:30.181Z,2.33
2022-12-25T18:17:57.169Z,2.58
2022-12-25T18:20:23.755Z,1.92
2022-12-25T18:22:50.279Z,2.33
2022-12-25T18:25:16.746Z,3.15
2022-12-25T18:27:43.579Z,2.40
2022-12-25T18:30:10.604Z,2.60
2022-12-25T18:32:38.607Z,2.95
2022-12-25T18:35:05.625Z,2.95
2022-12-25T18:37:37.777Z,2.63
2022-12-25T18:40:07.345Z,2.65
2022-12-25T18:42:39.970Z,3.25
2022-12-25T18:45:09.788Z,2.72
2022-12-25T18:47:36.435Z,4.45
2022-12-25T18:50:04.142Z,2.40
2022-12-25T18:52:49.554Z,3.03
2022-12-25T18:55:17.935Z,2.60
2022-12-25T18:57:44.531Z,2.35
2022-12-25T19:00:11.941Z,2.75
2022-12-25T19:02:39.712Z,2.67
2022-12-25T19:05:06.619Z,3.80
2022-12-25T19:07:34.174Z,2.38
2022-12-25T19:12:27.121Z,2.03
2022-12-25T19:14:53.593Z,2.63
2022-12-25T19:17:20.147Z,2.40
2022-12-25T19:22:13.939Z,2.30
2022-12-25T19:24:40.472Z,2.58
2022-12-25T19:29:34.188Z,2.30
2022-12-25T19:32:00.808Z,2.50
2022-12-25T19:34:27.456Z,2.95
2022-12-25T19:39:20.634Z,2.63
2022-12-25T19:41:47.796Z,2.75
2022-12-25T19:44:15.032Z,2.75
2022-12-25T19:46:41.767Z,2.38
2022-12-25T19:49:13.424Z,2.60
2022-12-25T19:51:42.603Z,2.67
2022-12-25T19:54:17.189Z,2.00
2022-12-25T19:56:44.572Z,2.03
2022-12-25T19:59:12.270Z,2.80
2022-12-25T20:01:39.311Z,3.33
2022-12-25T20:04:08.641Z,3.28
2022-12-25T20:06:38.110Z,2.60
2022-12-25T20:09:08.922Z,2.67
2022-12-25T20:11:36.663Z,2.53
2022-12-25T20:14:04.168Z,2.75
2022-12-25T20:16:30.910Z,2.03
2022-12-25T20:21:26.685Z,2.83
2022-12-25T20:23:54.118Z,2.47
2022-12-25T20:26:23.234Z,2.30
2022-12-25T20:28:50.409Z,2.42
2022-12-25T20:31:20.231Z,2.63
2022-12-25T20:33:47.477Z,1.90
2022-12-25T20:36:15.116Z,2.63
2022-12-25T20:38:41.972Z,2.35
2022-12-25T20:41:28.741Z,2.17
2022-12-25T20:43:56.384Z,2.85
2022-12-25T20:46:23.828Z,2.30
2022-12-25T20:48:51.810Z,2.80
2022-12-25T20:51:21.824Z,2.42
2022-12-25T20:53:48.960Z,2.47
2022-12-25T20:56:17.471Z,2.10
2022-12-25T20:58:44.705Z,2.10
2022-12-25T21:01:14.478Z,1.85
2022-12-25T21:03:41.848Z,3.60
2022-12-25T21:06:09.738Z,2.50
2022-12-25T21:08:37.511Z,2.40
2022-12-25T21:11:05.428Z,2.20
2022-12-25T21:13:35.046Z,2.55
2022-12-25T21:16:06.853Z,2.50
2022-12-25T21:18:33.959Z,3.10
2022-12-25T21:21:04.671Z,2.13
2022-12-25T21:23:32.471Z,2.30
2022-12-25T21:26:00.020Z,1.73
2022-12-25T21:28:29.481Z,1.70
2022-12-25T21:31:04.176Z,1.95
2022-12-25T21:33:49.127Z,2.97
2022-12-25T21:36:16.899Z,1.77
2022-12-25T21:38:45.292Z,1.67
2022-12-25T21:41:14.553Z,1.63
2022-12-25T21:43:42.882Z,1.90
2022-12-25T21:46:12.324Z,1.98
2022-12-25T21:48:40.113Z,2.00
2022-12-25T21:51:33.388Z,1.75
2022-12-25T21:54:00.957Z,1.70
2022-12-25T21:56:32.277Z,2.00
2022-12-25T21:59:00.994Z,1.90
2022-12-25T22:01:28.858Z,1.88
2022-12-25T22:03:57.309Z,1.60
2022-12-25T22:06:42.655Z,2.75
2022-12-25T22:09:09.235Z,2.00
2022-12-25T22:11:54.372Z,1.60
2022-12-25T22:17:56.440Z,1.08
2022-12-25T22:20:30.001Z,1.77
2022-12-25T22:22:58.038Z,2.15
2022-12-25T22:25:25.040Z,2.38
2022-12-25T22:27:52.621Z,1.95
2022-12-25T22:30:22.853Z,1.80
2022-12-25T22:32:50.500Z,1.80
2022-12-25T22:35:17.411Z,2.17
2022-12-25T22:37:44.098Z,2.60
2022-12-25T22:40:13.913Z,1.80
2022-12-25T22:42:41.078Z,1.80
2022-12-25T22:45:08.640Z,1.50
2022-12-25T22:47:36.242Z,1.40
2022-12-25T22:50:02.933Z,1.20
2022-12-25T22:52:30.191Z,1.60
2022-12-25T22:54:56.939Z,1.42
2022-12-25T22:57:23.741Z,0.95
2022-12-25T22:59:52.549Z,1.40
2022-12-25T23:02:19.453Z,1.30
2022-12-25T23:04:47.691Z,1.58
2022-12-25T23:09:43.324Z,0.90
2022-12-25T23:12:33.239Z,2.08
2022-12-25T23:14:59.645Z,1.27
2022-12-25T23:17:44.961Z,1.02
2022-12-25T23:20:33.339Z,0.90
2022-12-25T23:23:18.436Z,1.27
2022-12-25T23:26:03.773Z,1.10
2022-12-25T23:28:49.114Z,1.00
2022-12-25T23:31:15.893Z,1.08
2022-12-25T23:33:43.367Z,1.00
2022-12-25T23:36:09.904Z,0.77
2022-12-25T23:38:36.453Z,0.88
2022-12-25T23:41:02.917Z,1.00
2022-12-25T23:43:29.522Z,0.70
2022-12-25T23:45:55.966Z,0.80
2022-12-25T23:48:22.744Z,0.85
2022-12-25T23:50:49.211Z,1.40
2022-12-25T23:53:16.280Z,1.23
2022-12-25T23:58:10.200Z,1.17
